Time;durP1;ratioP1;P1;durP2;ratioP2;P2;SDS_P1;SDS_P2;PMS_P1;PMS_P2;Temp;Humidity;BMP_temperature;BMP_pressure;BME280_temperature;BME280_humidity;BME280_pressure;Samples;Min_cycle;Max_cycle;Signal;HPM_P1;HPM_P2
2023/02/14 00:01:48;;;;;;;10.48;5.90;;;1.60;99.90;;;;;;5044361;28;20079;-82
2023/02/14 00:04:16;;;;;;;10.93;6.53;;;1.60;99.90;;;;;;5026301;28;20124;-82
2023/02/14 00:06:42;;;;;;;10.93;6.07;;;1.50;99.90;;;;;;5039367;28;20536;-82
2023/02/14 00:09:11;;;;;;;11.45;6.50;;;1.40;99.90;;;;;;5039837;28;20071;-83
2023/02/14 00:11:38;;;;;;;9.43;5.55;;;1.50;99.90;;;;;;5026041;28;20473;-82
2023/02/14 00:16:48;;;;;;;9.23;5.60;;;1.40;99.90;;;;;;5045210;28;20087;-83
2023/02/14 00:19:15;;;;;;;9.27;4.95;;;1.40;99.90;;;;;;5038371;28;20092;-82
2023/02/14 00:21:41;;;;;;;10.30;5.55;;;1.40;99.90;;;;;;5029777;28;20029;-82
2023/02/14 00:24:27;;;;;;;9.40;5.45;;;1.30;99.90;;;;;;5030307;28;20035;-82
2023/02/14 00:26:53;;;;;;;7.10;3.88;;;1.20;99.90;;;;;;5041629;28;20038;-83
2023/02/14 00:29:21;;;;;;;8.23;4.70;;;1.30;99.90;;;;;;5045681;28;20539;-84
2023/02/14 00:31:49;;;;;;;8.88;4.93;;;1.30;99.90;;;;;;5038008;28;20030;-83
2023/02/14 00:34:16;;;;;;;7.88;4.35;;;1.20;99.90;;;;;;5027218;28;20436;-83
2023/02/14 00:36:42;;;;;;;7.40;4.15;;;1.20;99.90;;;;;;5037434;28;20055;-82
2023/02/14 00:39:10;;;;;;;9.82;5.05;;;1.20;99.90;;;;;;5022746;28;20034;-82
2023/02/14 00:41:37;;;;;;;7.30;3.97;;;1.20;99.90;;;;;;5044313;28;20481;-82
2023/02/14 00:44:02;;;;;;;9.13;4.35;;;1.10;99.90;;;;;;5039159;28;20641;-82
2023/02/14 00:46:28;;;;;;;7.93;4.13;;;1.20;99.90;;;;;;5029965;28;20025;-82
2023/02/14 00:48:55;;;;;;;7.05;3.85;;;1.10;99.90;;;;;;5038345;28;20132;-83
2023/02/14 00:51:21;;;;;;;6.78;3.83;;;1.20;99.90;;;;;;5039369;28;20055;-83
2023/02/14 00:53:50;;;;;;;6.97;3.60;;;1.10;99.90;;;;;;5042588;28;20480;-85
2023/02/14 00:56:16;;;;;;;8.07;4.25;;;1.00;99.90;;;;;;5042610;28;20068;-84
2023/02/14 00:58:43;;;;;;;6.00;3.53;;;1.00;99.90;;;;;;5042552;28;20044;-83
2023/02/14 01:01:09;;;;;;;7.15;3.38;;;1.00;99.90;;;;;;5047835;28;20379;-84
2023/02/14 01:03:35;;;;;;;6.95;3.70;;;1.10;99.90;;;;;;5046653;28;20495;-85
2023/02/14 01:06:01;;;;;;;6.85;3.15;;;1.00;99.90;;;;;;5043358;28;20032;-84
2023/02/14 01:08:28;;;;;;;6.47;3.83;;;0.90;99.90;;;;;;5047135;28;20503;-82
2023/02/14 01:10:54;;;;;;;6.97;4.13;;;1.00;99.90;;;;;;5044646;28;20080;-85
2023/02/14 01:13:20;;;;;;;6.50;3.75;;;0.90;99.90;;;;;;5032759;28;20424;-85
2023/02/14 01:15:48;;;;;;;6.75;3.80;;;0.90;99.90;;;;;;5030747;28;20029;-84
2023/02/14 01:18:15;;;;;;;6.10;3.35;;;0.80;99.90;;;;;;5047506;28;20389;-83
2023/02/14 01:20:41;;;;;;;6.88;3.70;;;0.80;99.90;;;;;;5047904;28;20037;-83
2023/02/14 01:23:07;;;;;;;7.05;3.90;;;0.80;99.90;;;;;;5028942;28;20691;-84
2023/02/14 01:25:54;;;;;;;7.38;4.30;;;0.70;99.90;;;;;;5032596;28;20035;-83
2023/02/14 01:28:22;;;;;;;8.07;3.92;;;0.50;99.90;;;;;;4978377;28;20184;-83
2023/02/14 01:30:47;;;;;;;6.47;3.70;;;0.50;99.90;;;;;;4967240;28;20049;-83
2023/02/14 01:33:13;;;;;;;6.22;3.60;;;0.50;99.90;;;;;;4958590;28;20038;-84
2023/02/14 01:35:38;;;;;;;6.43;2.78;;;0.60;99.90;;;;;;4953998;28;20031;-82
2023/02/14 01:38:04;;;;;;;5.72;3.13;;;0.60;99.90;;;;;;4982578;28;20030;-83
2023/02/14 01:40:30;;;;;;;5.45;2.75;;;0.70;99.90;;;;;;4984582;28;20074;-83
2023/02/14 01:42:56;;;;;;;6.53;3.28;;;0.70;99.90;;;;;;4959732;28;20110;-84
2023/02/14 01:45:25;;;;;;;5.40;2.78;;;0.50;99.90;;;;;;4994048;28;20081;-84
2023/02/14 01:47:54;;;;;;;6.57;3.25;;;0.50;99.90;;;;;;4958372;28;20030;-82
2023/02/14 01:50:26;;;;;;;4.70;2.70;;;0.40;99.90;;;;;;4961249;28;20133;-82
2023/02/14 01:52:59;;;;;;;6.13;2.85;;;0.30;99.90;;;;;;4986758;28;20037;-83
2023/02/14 01:55:29;;;;;;;4.55;2.47;;;0.50;99.90;;;;;;4955868;28;20053;-83
2023/02/14 01:58:06;;;;;;;4.78;2.78;;;0.50;99.90;;;;;;4968425;28;20416;-84
2023/02/14 02:03:18;;;;;;;6.03;2.85;;;0.50;99.90;;;;;;4985816;28;20085;-84
2023/02/14 02:05:49;;;;;;;4.15;2.03;;;0.50;99.90;;;;;;5003857;28;20038;-84
2023/02/14 02:08:16;;;;;;;4.88;2.13;;;0.40;99.90;;;;;;5021366;28;20494;-84
2023/02/14 02:10:43;;;;;;;4.25;2.45;;;0.40;99.90;;;;;;5024210;28;20022;-83
2023/02/14 02:13:16;;;;;;;4.15;2.13;;;0.30;99.90;;;;;;5012126;28;20052;-82
2023/02/14 02:16:06;;;;;;;7.18;3.33;;;0.40;99.90;;;;;;5012992;28;20112;-83
2023/02/14 02:18:57;;;;;;;3.97;2.58;;;0.20;99.90;;;;;;5011746;28;20044;-84
2023/02/14 02:21:50;;;;;;;4.22;1.70;;;0.20;99.90;;;;;;5023626;28;20044;-83
2023/02/14 02:24:37;;;;;;;4.55;2.17;;;0.10;99.90;;;;;;5023580;28;20030;-83
2023/02/14 02:27:19;;;;;;;5.03;2.30;;;0.20;99.90;;;;;;5024400;28;20034;-83
2023/02/14 02:30:18;;;;;;;5.13;1.90;;;0.20;99.90;;;;;;5025980;28;20033;-83
2023/02/14 02:32:56;;;;;;;4.57;2.00;;;0.30;99.90;;;;;;5009700;28;20083;-82
2023/02/14 02:35:35;;;;;;;5.03;2.17;;;0.30;99.90;;;;;;5020286;28;20029;-84
2023/02/14 02:38:33;;;;;;;5.63;2.45;;;0.20;99.90;;;;;;5008427;28;20033;-83
2023/02/14 02:41:05;;;;;;;4.35;2.35;;;0.20;99.90;;;;;;5024803;28;20549;-83
2023/02/14 02:43:55;;;;;;;4.35;2.20;;;0.20;99.90;;;;;;5021082;28;20057;-83
2023/02/14 02:46:50;;;;;;;4.75;2.08;;;0.20;99.90;;;;;;5008722;28;20421;-84
2023/02/14 02:55:16;;;;;;;3.65;1.65;;;0.00;99.90;;;;;;5031322;28;20033;-83
2023/02/14 02:57:44;;;;;;;3.20;1.40;;;0.20;99.90;;;;;;5042201;28;20508;-83
2023/02/14 03:00:13;;;;;;;4.00;2.10;;;0.10;99.90;;;;;;5028072;28;20033;-83
2023/02/14 03:05:33;;;;;;;4.93;1.83;;;0.00;99.90;;;;;;5042489;28;20067;-83
2023/02/14 03:07:59;;;;;;;4.18;1.88;;;-0.10;99.90;;;;;;5027218;28;20050;-83
2023/02/14 03:10:29;;;;;;;4.85;1.73;;;-0.10;99.90;;;;;;5030030;28;20100;-83
2023/02/14 03:13:23;;;;;;;4.38;1.95;;;0.00;99.90;;;;;;5028541;28;20245;-82
2023/02/14 03:15:55;;;;;;;3.25;1.75;;;0.00;99.90;;;;;;5022555;28;20052;-83
2023/02/14 03:18:48;;;;;;;4.43;2.33;;;0.00;99.90;;;;;;5045794;28;20017;-83
2023/02/14 03:21:33;;;;;;;3.67;1.73;;;0.00;99.90;;;;;;5046590;28;20021;-82
2023/02/14 03:24:28;;;;;;;4.30;1.80;;;0.00;99.90;;;;;;5040326;28;20156;-83
2023/02/14 03:27:36;;;;;;;3.63;1.52;;;-0.10;99.90;;;;;;5046782;28;20032;-83
2023/02/14 03:30:13;;;;;;;3.65;1.50;;;-0.10;99.90;;;;;;4969989;28;20499;-83
2023/02/14 03:32:46;;;;;;;3.05;1.25;;;-0.20;99.90;;;;;;4961316;28;20193;-83
2023/02/14 03:35:12;;;;;;;3.72;2.05;;;-0.30;99.90;;;;;;4956956;28;20031;-82
2023/02/14 03:37:51;;;;;;;3.45;1.52;;;-0.30;99.90;;;;;;4957393;28;20062;-82
2023/02/14 03:40:27;;;;;;;3.22;1.20;;;-0.30;99.90;;;;;;4954035;28;20539;-82
2023/02/14 03:43:01;;;;;;;3.92;1.60;;;-0.40;99.90;;;;;;4950381;28;20027;-82
2023/02/14 03:46:01;;;;;;;4.25;1.60;;;-0.30;99.90;;;;;;4958062;28;20102;-82
2023/02/14 03:48:28;;;;;;;3.20;1.33;;;-0.30;99.90;;;;;;4959594;28;20396;-82
2023/02/14 03:50:56;;;;;;;4.22;1.40;;;-0.40;99.90;;;;;;4963142;28;20641;-84
2023/02/14 03:53:30;;;;;;;3.85;1.52;;;-0.40;99.90;;;;;;4975984;28;20051;-82
2023/02/14 03:56:14;;;;;;;3.45;1.05;;;-0.40;99.90;;;;;;4961602;28;20121;-82
2023/02/14 03:58:46;;;;;;;3.33;1.25;;;-0.40;99.90;;;;;;4964122;28;20457;-83
2023/02/14 04:01:23;;;;;;;3.55;1.40;;;-0.30;99.90;;;;;;4977619;28;20117;-82
2023/02/14 04:03:52;;;;;;;3.10;1.27;;;-0.40;99.90;;;;;;4972277;28;20145;-84
2023/02/14 04:06:19;;;;;;;2.88;1.02;;;-0.40;99.90;;;;;;5025620;28;20033;-82
2023/02/14 04:08:45;;;;;;;3.35;1.45;;;-0.40;99.90;;;;;;5024276;28;20030;-82
2023/02/14 04:11:11;;;;;;;3.70;1.70;;;-0.40;99.90;;;;;;5023278;28;20363;-82
2023/02/14 04:13:38;;;;;;;3.83;1.60;;;-0.40;99.90;;;;;;5026248;28;20076;-82
2023/02/14 04:16:04;;;;;;;3.22;1.30;;;-0.50;99.90;;;;;;5019936;28;20076;-82
2023/02/14 04:21:15;;;;;;;3.15;1.33;;;-0.60;99.90;;;;;;5038313;28;20038;-83
2023/02/14 04:23:40;;;;;;;3.17;1.20;;;-0.60;99.90;;;;;;5024593;28;20033;-82
2023/02/14 04:26:06;;;;;;;3.40;1.50;;;-0.60;99.90;;;;;;5023712;28;20398;-82
2023/02/14 04:28:32;;;;;;;2.78;1.23;;;-0.60;99.90;;;;;;5010046;28;20105;-83
2023/02/14 04:31:05;;;;;;;3.35;1.60;;;-0.50;99.90;;;;;;5026378;28;20029;-82
2023/02/14 04:33:32;;;;;;;4.03;1.70;;;-0.50;99.90;;;;;;5020830;28;20030;-82
2023/02/14 04:35:58;;;;;;;4.25;1.63;;;-0.50;99.90;;;;;;5030598;28;20022;-82
2023/02/14 04:38:24;;;;;;;4.10;1.88;;;-0.50;99.90;;;;;;5021271;28;20033;-82
2023/02/14 04:40:51;;;;;;;3.50;1.67;;;-0.50;99.90;;;;;;5021620;28;20025;-82
2023/02/14 04:43:17;;;;;;;4.55;1.70;;;-0.50;99.90;;;;;;5009296;28;20486;-83
2023/02/14 04:45:43;;;;;;;4.28;1.40;;;-0.60;99.90;;;;;;5006111;28;20038;-82
2023/02/14 04:48:09;;;;;;;3.22;1.70;;;-0.60;99.90;;;;;;5018693;28;20056;-82
2023/02/14 04:50:35;;;;;;;4.03;2.00;;;-0.50;99.90;;;;;;5026796;28;20029;-82
2023/02/14 04:53:01;;;;;;;3.83;1.52;;;-0.40;99.90;;;;;;5004914;28;20026;-81
2023/02/14 04:55:26;;;;;;;4.25;1.52;;;-0.50;99.90;;;;;;5011030;28;20069;-83
2023/02/14 04:57:52;;;;;;;5.22;1.60;;;-0.50;99.90;;;;;;5037213;28;20038;-82
2023/02/14 05:00:18;;;;;;;3.20;1.13;;;-0.60;99.90;;;;;;5028020;28;20558;-82
2023/02/14 05:02:44;;;;;;;5.53;1.40;;;-0.60;99.90;;;;;;5028115;28;20111;-82
2023/02/14 05:05:10;;;;;;;3.92;1.25;;;-0.50;99.90;;;;;;5024462;28;20116;-82
2023/02/14 05:07:36;;;;;;;3.38;1.17;;;-0.70;99.90;;;;;;5028389;28;20029;-82
2023/02/14 05:10:03;;;;;;;4.88;1.60;;;-0.70;99.90;;;;;;5040441;28;20133;-82
2023/02/14 05:12:29;;;;;;;3.55;1.42;;;-0.80;99.90;;;;;;5030604;28;20033;-82
2023/02/14 05:14:56;;;;;;;3.17;1.33;;;-0.80;99.90;;;;;;5041556;28;20032;-82
2023/02/14 05:17:22;;;;;;;3.60;1.40;;;-0.70;99.90;;;;;;5042789;28;20393;-81
2023/02/14 05:19:55;;;;;;;4.03;1.20;;;-0.70;99.90;;;;;;5024483;28;20382;-82
2023/02/14 05:22:21;;;;;;;2.83;1.13;;;-0.70;99.90;;;;;;5027018;28;20525;-83
2023/02/14 05:24:47;;;;;;;3.63;1.17;;;-0.90;99.90;;;;;;5027970;28;20029;-82
2023/02/14 05:27:12;;;;;;;3.92;1.40;;;-0.80;99.90;;;;;;5026343;28;20029;-82
2023/02/14 05:29:38;;;;;;;3.45;1.50;;;-0.90;99.90;;;;;;5025345;28;20044;-82
2023/02/14 05:32:04;;;;;;;3.08;1.00;;;-0.80;99.90;;;;;;5045884;28;20017;-82
2023/02/14 05:34:29;;;;;;;2.88;0.85;;;-0.80;99.90;;;;;;5037873;28;20102;-81
2023/02/14 05:36:56;;;;;;;3.78;1.33;;;-0.80;99.90;;;;;;5055542;28;20390;-81
2023/02/14 05:39:22;;;;;;;3.10;1.00;;;-0.70;99.90;;;;;;5039392;28;20052;-81
2023/02/14 05:41:48;;;;;;;3.15;1.25;;;-0.80;99.90;;;;;;5023954;28;20033;-82
2023/02/14 05:44:13;;;;;;;2.92;1.27;;;-0.60;99.90;;;;;;5028948;28;20163;-83
2023/02/14 05:46:39;;;;;;;4.20;1.42;;;-0.40;99.90;;;;;;5042706;28;20036;-82
2023/02/14 05:49:05;;;;;;;5.35;2.30;;;-0.20;99.90;;;;;;5047838;28;20489;-84
2023/02/14 05:51:30;;;;;;;3.97;1.98;;;-0.10;99.90;;;;;;5045489;28;20032;-82
2023/02/14 05:53:58;;;;;;;4.05;2.08;;;0.00;99.90;;;;;;5030319;28;20026;-82
2023/02/14 05:56:24;;;;;;;6.63;2.53;;;0.10;99.90;;;;;;5047867;28;20051;-82
2023/02/14 05:58:50;;;;;;;5.57;2.33;;;0.20;99.90;;;;;;5043712;28;20064;-82
2023/02/14 06:01:16;;;;;;;5.60;2.47;;;0.40;99.90;;;;;;5030125;28;20029;-82
2023/02/14 06:03:41;;;;;;;5.10;2.47;;;0.30;99.90;;;;;;5027690;28;20500;-82
2023/02/14 06:06:07;;;;;;;4.63;2.63;;;0.40;99.90;;;;;;5044027;28;20025;-82
2023/02/14 06:08:33;;;;;;;4.95;2.55;;;0.50;99.90;;;;;;5030257;28;20048;-82
2023/02/14 06:10:58;;;;;;;5.78;2.30;;;0.50;99.90;;;;;;5045324;28;20812;-81
2023/02/14 06:13:24;;;;;;;5.53;2.35;;;0.50;99.90;;;;;;5029713;28;20041;-84
2023/02/14 06:15:50;;;;;;;5.15;1.95;;;0.40;99.90;;;;;;5028437;28;20489;-81
2023/02/14 06:18:16;;;;;;;4.22;2.30;;;0.70;99.90;;;;;;5027832;28;20452;-83
2023/02/14 06:20:41;;;;;;;5.15;2.80;;;0.70;99.90;;;;;;5028298;28;20042;-82
2023/02/14 06:23:14;;;;;;;5.25;2.53;;;0.70;99.90;;;;;;5041013;28;20025;-82
2023/02/14 06:25:40;;;;;;;4.78;2.50;;;0.50;99.90;;;;;;5045014;28;20106;-82
2023/02/14 06:28:06;;;;;;;4.03;2.08;;;0.30;99.90;;;;;;5041876;28;20033;-82
2023/02/14 06:30:31;;;;;;;4.50;2.30;;;0.20;99.90;;;;;;5041736;28;20021;-83
2023/02/14 06:32:57;;;;;;;4.88;2.20;;;0.30;99.90;;;;;;5027687;28;20042;-82
2023/02/14 06:35:23;;;;;;;4.68;2.10;;;0.30;99.90;;;;;;5027548;28;20064;-83
2023/02/14 06:37:48;;;;;;;4.85;2.17;;;0.20;99.90;;;;;;5027721;28;20488;-82
2023/02/14 06:40:29;;;;;;;4.72;2.63;;;0.00;99.90;;;;;;4992312;28;20064;-86
2023/02/14 06:43:16;;;;;;;4.10;1.63;;;-0.20;99.90;;;;;;5025006;28;20038;-85
2023/02/14 06:46:01;;;;;;;6.13;2.00;;;-0.40;99.90;;;;;;5050543;28;20035;-86
2023/02/14 06:48:28;;;;;;;3.33;1.13;;;-0.20;99.90;;;;;;5032086;28;20126;-85
2023/02/14 06:51:34;;;;;;;3.03;1.50;;;-0.30;99.90;;;;;;5047077;28;20040;-87
2023/02/14 06:58:37;;;;;;;5.28;1.63;;;-0.30;99.90;;;;;;5046706;28;20048;-85
2023/02/14 07:01:16;;;;;;;3.58;1.75;;;-0.40;99.90;;;;;;5029474;28;20127;-85
2023/02/14 07:03:57;;;;;;;3.78;1.38;;;-0.50;99.90;;;;;;5032451;28;20110;-84
2023/02/14 07:06:29;;;;;;;3.10;1.17;;;-0.50;99.90;;;;;;5032810;28;20180;-85
2023/02/14 07:08:58;;;;;;;2.83;1.15;;;-0.60;99.90;;;;;;5038640;28;20128;-86
2023/02/14 07:11:49;;;;;;;2.72;1.30;;;-0.60;99.90;;;;;;5033448;28;20044;-86
2023/02/14 07:14:28;;;;;;;3.97;1.88;;;-0.60;99.90;;;;;;5066994;28;20038;-86
2023/02/14 07:17:37;;;;;;;3.15;1.40;;;-0.60;99.90;;;;;;5045926;28;20154;-86
2023/02/14 07:20:19;;;;;;;4.18;1.30;;;-0.50;99.90;;;;;;5050446;28;20229;-86
2023/02/14 07:22:54;;;;;;;4.90;1.67;;;-0.60;99.90;;;;;;5050908;28;20052;-85
2023/02/14 07:25:27;;;;;;;3.72;1.67;;;-0.50;99.90;;;;;;5032661;28;20604;-84
2023/02/14 07:28:16;;;;;;;4.53;2.08;;;-0.40;99.90;;;;;;5033082;28;20037;-85
2023/02/14 07:31:22;;;;;;;5.05;1.50;;;-0.40;99.90;;;;;;5027934;28;20550;-86
2023/02/14 07:38:30;;;;;;;;;;;;;;;;;;;;;
2023/02/14 07:41:04;;;;;;;3.38;1.20;;;0.10;99.90;;;;;;4955906;28;20133;-84
2023/02/14 07:48:28;;;;;;;4.93;2.28;;;0.50;99.90;;;;;;4964990;28;20048;-84
2023/02/14 07:51:15;;;;;;;3.00;1.15;;;0.40;99.90;;;;;;4965336;28;20082;-86
2023/02/14 07:54:08;;;;;;;3.13;1.33;;;0.50;99.90;;;;;;4972829;28;20045;-85
2023/02/14 07:57:47;;;;;;;4.30;1.80;;;0.70;99.90;;;;;;4976024;28;20046;-84
2023/02/14 08:03:37;;;;;;;4.55;2.08;;;0.90;99.90;;;;;;4987464;28;20037;-83
2023/02/14 08:06:10;;;;;;;3.92;1.85;;;1.20;99.90;;;;;;4953809;28;20038;-83
2023/02/14 08:08:41;;;;;;;4.68;2.40;;;1.30;99.90;;;;;;4989414;28;20036;-83
2023/02/14 08:21:19;;;;;;;4.03;2.10;;;1.80;99.90;;;;;;5044616;28;20051;-83
2023/02/14 08:23:45;;;;;;;5.97;3.95;;;2.00;99.90;;;;;;5027440;28;20041;-82
2023/02/14 08:31:19;;;;;;;;;;;;;;;;;;;;;
2023/02/14 08:57:26;;;;;;;6.03;3.05;;;3.40;99.90;;;;;;4757790;30;20535;-82
2023/02/14 09:00:33;;;;;;;;;;;;;;;;;;;;;
2023/02/14 09:03:51;;;;;;;5.60;3.42;;;3.80;99.90;;;;;;4765101;30;20050;-85
2023/02/14 09:06:35;;;;;;;8.00;3.83;;;4.10;99.90;;;;;;4761948;30;20504;-85
2023/02/14 09:09:32;;;;;;;9.77;5.00;;;4.30;99.90;;;;;;4762497;30;20143;-84
2023/02/14 09:27:13;;;;;;;6.20;3.63;;;5.00;99.90;;;;;;4892033;29;20106;-87
2023/02/14 09:37:13;;;;;;;6.93;4.35;;;5.60;99.90;;;;;;5047759;28;20420;-83
2023/02/14 09:39:59;;;;;;;7.85;4.45;;;5.60;99.90;;;;;;5011475;28;20056;-88
2023/02/14 09:42:57;;;;;;;;;;;;;;;;;;;;;
2023/02/14 09:48:57;;;;;;;;;;;;;;;;;;;;;
2023/02/14 09:52:15;;;;;;;;;;;;;;;;;;;;;
2023/02/14 09:59:06;;;;;;;;;;;;;;;;;;;;;
2023/02/14 10:01:44;;;;;;;12.40;7.55;;;6.60;99.90;;;;;;4973362;28;20137;-83
2023/02/14 10:04:28;;;;;;;11.80;8.07;;;6.70;99.90;;;;;;4986543;28;20026;-84
2023/02/14 10:07:59;;;;;;;14.85;8.70;;;6.80;99.90;;;;;;4989255;28;20046;-83
2023/02/14 10:11:01;;;;;;;9.80;6.18;;;6.90;99.90;;;;;;4891234;29;20044;-83
2023/02/14 10:17:54;;;;;;;12.07;7.63;;;7.20;99.90;;;;;;4888916;29;20044;-84
2023/02/14 10:21:14;;;;;;;11.85;7.32;;;7.30;99.90;;;;;;4866641;29;20107;-83
2023/02/14 10:23:56;;;;;;;16.02;9.27;;;7.40;99.90;;;;;;4891966;29;20075;-81
2023/02/14 10:26:56;;;;;;;12.95;7.97;;;7.50;99.90;;;;;;4891406;29;20068;-84
2023/02/14 10:30:01;;;;;;;11.77;7.45;;;7.70;99.90;;;;;;4893673;29;21007;-83
2023/02/14 10:32:58;;;;;;;10.67;6.73;;;7.70;99.90;;;;;;4890563;29;20209;-81
2023/02/14 10:36:06;;;;;;;;;;;;;;;;;;;;;
2023/02/14 10:39:52;;;;;;;9.93;7.15;;;8.00;99.90;;;;;;4928961;29;20050;-81
2023/02/14 10:42:44;;;;;;;10.63;6.32;;;8.20;99.90;;;;;;4973407;28;20073;-81
2023/02/14 10:45:25;;;;;;;10.63;7.13;;;8.20;99.90;;;;;;5031566;28;20062;-83
2023/02/14 10:48:36;;;;;;;9.93;6.28;;;8.30;99.90;;;;;;5030303;28;20144;-87
2023/02/14 10:51:29;;;;;;;9.82;6.38;;;8.40;99.90;;;;;;4996082;28;20056;-85
2023/02/14 10:54:27;;;;;;;9.77;6.35;;;8.50;99.90;;;;;;5028204;28;20052;-85
2023/02/14 10:57:00;;;;;;;10.48;7.28;;;8.50;99.90;;;;;;5025529;28;20040;-83
2023/02/14 10:59:34;;;;;;;10.25;6.80;;;8.60;99.90;;;;;;5043834;28;20052;-82
2023/02/14 11:02:00;;;;;;;10.45;6.60;;;8.70;99.90;;;;;;5026894;28;20036;-83
2023/02/14 11:04:29;;;;;;;10.38;7.00;;;8.80;99.90;;;;;;5042670;28;20139;-83
2023/02/14 11:06:55;;;;;;;11.63;9.07;;;8.90;99.90;;;;;;5026051;28;20032;-86
2023/02/14 11:09:21;;;;;;;12.10;8.18;;;8.90;99.90;;;;;;5041552;28;20041;-83
2023/02/14 11:11:54;;;;;;;12.05;9.13;;;9.10;99.90;;;;;;5027011;28;20063;-83
2023/02/14 11:14:24;;;;;;;11.88;8.57;;;9.10;99.90;;;;;;5024851;28;20033;-84
2023/02/14 11:16:54;;;;;;;14.60;9.20;;;9.20;99.90;;;;;;5041239;28;20427;-81
2023/02/14 11:19:39;;;;;;;;;;;;;;;;;;;;;
2023/02/14 11:22:41;;;;;;;;;;;;;;;;;;;;;
2023/02/14 11:25:34;;;;;;;;;;;;;;;;;;;;;
2023/02/14 11:28:23;;;;;;;11.20;7.20;;;9.50;99.90;;;;;;5046558;28;20033;-81
2023/02/14 11:35:25;;;;;;;;;;;;;;;;;;;;;
2023/02/14 11:42:54;;;;;;;11.25;6.72;;;9.90;99.90;;;;;;4934552;28;20090;-83
2023/02/14 11:45:50;;;;;;;10.25;6.40;;;9.80;99.90;;;;;;4984954;28;20113;-83
2023/02/14 11:52:00;;;;;;;8.73;5.57;;;10.00;99.90;;;;;;4996703;28;20057;-85
2023/02/14 11:54:49;;;;;;;9.02;5.90;;;10.30;99.90;;;;;;4990478;28;21339;-84
2023/02/14 11:57:45;;;;;;;10.18;6.80;;;10.20;99.90;;;;;;4971831;28;20581;-84
2023/02/14 12:00:39;;;;;;;8.85;6.70;;;10.30;99.90;;;;;;4960072;28;20839;-84
2023/02/14 12:03:18;;;;;;;9.82;6.55;;;10.40;99.90;;;;;;4961622;28;20684;-85
2023/02/14 12:05:59;;;;;;;;;;;;;;;;;;;;;
2023/02/14 12:08:40;;;;;;;11.23;7.70;;;10.50;99.90;;;;;;4959412;28;20606;-81
2023/02/14 12:11:23;;;;;;;9.68;7.20;;;10.70;99.90;;;;;;4943788;28;20034;-81
2023/02/14 12:17:15;;;;;;;10.00;6.72;;;10.70;99.90;;;;;;5012520;28;20060;-81
2023/02/14 12:19:54;;;;;;;8.40;5.65;;;10.70;99.90;;;;;;4986889;28;20456;-81
2023/02/14 12:22:35;;;;;;;9.45;7.32;;;10.80;99.90;;;;;;5015685;28;20033;-81
2023/02/14 12:25:33;;;;;;;9.30;6.95;;;10.90;99.90;;;;;;4997159;28;20053;-80
2023/02/14 12:28:24;;;;;;;9.07;6.32;;;10.90;99.90;;;;;;4990818;28;20124;-81
2023/02/14 12:30:50;;;;;;;8.25;5.70;;;10.90;99.90;;;;;;5014379;28;20120;-80
2023/02/14 12:33:22;;;;;;;8.70;5.90;;;10.90;99.90;;;;;;5009319;28;20029;-84
2023/02/14 12:36:00;;;;;;;7.13;5.13;;;11.00;99.90;;;;;;4995375;28;20029;-80
2023/02/14 12:38:37;;;;;;;8.88;6.03;;;11.00;99.90;;;;;;4995619;28;20041;-80
2023/02/14 12:41:26;;;;;;;7.32;5.20;;;11.00;99.90;;;;;;4974529;28;20053;-81
2023/02/14 12:43:58;;;;;;;8.40;5.78;;;11.10;99.90;;;;;;4965346;28;20037;-84
2023/02/14 12:47:10;;;;;;;;;;;;;;;;;;;;;
2023/02/14 12:49:52;;;;;;;;;;;;;;;;;;;;;
2023/02/14 12:52:57;;;;;;;11.43;7.45;;;11.10;99.90;;;;;;5030080;28;20029;-82
2023/02/14 12:55:36;;;;;;;9.43;6.35;;;11.20;99.90;;;;;;4994006;28;20048;-81
2023/02/14 12:58:17;;;;;;;6.28;4.95;;;11.30;99.90;;;;;;5017630;28;20033;-80
2023/02/14 13:01:05;;;;;;;8.60;6.25;;;11.30;99.90;;;;;;5001517;28;20580;-81
2023/02/14 13:04:19;;;;;;;8.52;5.53;;;11.30;99.90;;;;;;5006627;28;20028;-81
2023/02/14 13:07:09;;;;;;;;;;;;;;;;;;;;;
2023/02/14 13:09:46;;;;;;;12.07;7.38;;;11.50;99.90;;;;;;5019344;28;20029;-80
2023/02/14 13:12:47;;;;;;;;;;;;;;;;;;;;;
2023/02/14 13:15:22;;;;;;;8.20;6.35;;;11.60;99.90;;;;;;5017680;28;20028;-81
2023/02/14 13:18:06;;;;;;;;;;;;;;;;;;;;;
2023/02/14 13:21:05;;;;;;;8.50;5.70;;;11.60;99.90;;;;;;5019832;28;20138;-81
2023/02/14 13:23:49;;;;;;;8.68;6.10;;;11.60;99.90;;;;;;5020843;28;20116;-82
2023/02/14 13:26:38;;;;;;;9.75;7.20;;;11.60;99.90;;;;;;5008275;28;20036;-81
2023/02/14 13:29:18;;;;;;;10.40;7.47;;;11.60;99.90;;;;;;5020360;28;20036;-81
2023/02/14 13:31:52;;;;;;;11.73;8.07;;;11.60;99.90;;;;;;5003582;28;20064;-82
2023/02/14 13:34:38;;;;;;;8.77;5.80;;;11.70;99.90;;;;;;4999502;28;20036;-81
2023/02/14 13:37:33;;;;;;;12.18;7.63;;;11.70;99.90;;;;;;5001491;28;20063;-81
2023/02/14 13:40:15;;;;;;;9.57;6.80;;;11.80;99.90;;;;;;5001300;28;20917;-81
2023/02/14 13:43:00;;;;;;;10.15;6.55;;;11.80;99.90;;;;;;4963307;28;20635;-81
2023/02/14 13:45:31;;;;;;;10.05;6.05;;;11.80;99.90;;;;;;5018884;28;20029;-82
2023/02/14 13:48:13;;;;;;;9.70;6.45;;;11.90;99.90;;;;;;5036952;28;20024;-81
2023/02/14 13:50:54;;;;;;;9.05;6.13;;;12.00;99.90;;;;;;5016630;28;20037;-81
2023/02/14 13:53:40;;;;;;;8.70;6.10;;;11.90;99.90;;;;;;5013428;28;20037;-82
2023/02/14 13:56:15;;;;;;;9.32;6.63;;;11.90;99.90;;;;;;4999092;28;20457;-81
2023/02/14 13:59:04;;;;;;;10.10;6.82;;;12.00;99.90;;;;;;5018863;28;20037;-82
2023/02/14 14:01:32;;;;;;;9.02;5.80;;;12.10;99.90;;;;;;4999446;28;20409;-81
2023/02/14 14:04:26;;;;;;;7.18;5.30;;;12.00;99.90;;;;;;5018693;28;20033;-81
2023/02/14 14:07:01;;;;;;;8.40;5.90;;;11.90;99.90;;;;;;5016146;28;20033;-81
2023/02/14 14:09:46;;;;;;;6.78;5.05;;;12.10;99.90;;;;;;5018109;28;20063;-80
2023/02/14 14:12:26;;;;;;;10.05;5.97;;;12.00;99.90;;;;;;5019642;28;20091;-81
2023/02/14 14:15:13;;;;;;;7.05;5.03;;;12.00;99.90;;;;;;5001329;28;20035;-80
2023/02/14 14:17:51;;;;;;;6.85;4.72;;;12.10;99.90;;;;;;4996479;28;20047;-81
2023/02/14 14:20:21;;;;;;;8.65;5.50;;;12.10;99.90;;;;;;4999420;28;20041;-80
2023/02/14 14:22:54;;;;;;;8.13;5.25;;;12.00;99.90;;;;;;5002508;28;20563;-80
2023/02/14 14:25:39;;;;;;;7.15;5.10;;;12.00;99.90;;;;;;5017511;28;20085;-81
2023/02/14 14:28:24;;;;;;;8.13;5.38;;;12.10;99.90;;;;;;5001081;28;20061;-81
2023/02/14 14:30:50;;;;;;;7.32;4.75;;;12.10;99.90;;;;;;5000495;28;20033;-81
2023/02/14 14:33:31;;;;;;;7.65;5.25;;;12.00;99.90;;;;;;5016851;28;20044;-80
2023/02/14 14:36:02;;;;;;;8.73;6.00;;;12.00;99.90;;;;;;4999545;28;20033;-81
2023/02/14 14:38:29;;;;;;;8.70;6.05;;;12.00;99.90;;;;;;5016854;28;20775;-82
2023/02/14 14:40:56;;;;;;;9.57;7.22;;;12.00;99.90;;;;;;4991668;28;20451;-81
2023/02/14 14:43:29;;;;;;;10.73;7.30;;;11.90;99.90;;;;;;5035555;28;20124;-80
2023/02/14 14:45:57;;;;;;;9.77;6.22;;;11.90;99.90;;;;;;5016572;28;20044;-82
2023/02/14 14:48:37;;;;;;;8.55;6.03;;;11.90;99.90;;;;;;5016558;28;20037;-81
2023/02/14 14:51:04;;;;;;;;;;;12.00;99.90;;;;;;4997918;28;20064;-81
2023/02/14 14:53:41;;;;;;;8.35;5.55;;;11.90;99.90;;;;;;5020185;28;20015;-85
2023/02/14 14:56:29;;;;;;;8.57;6.38;;;11.90;99.90;;;;;;5004651;28;20544;-84
2023/02/14 14:58:56;;;;;;;7.18;4.68;;;11.80;99.90;;;;;;5021887;28;20022;-86
2023/02/14 15:01:38;;;;;;;9.15;6.35;;;11.90;99.90;;;;;;5019119;28;20048;-84
2023/02/14 15:04:15;;;;;;;7.95;5.07;;;11.80;99.90;;;;;;5001753;28;20036;-82
2023/02/14 15:06:41;;;;;;;7.80;5.22;;;11.70;99.90;;;;;;4998969;28;20037;-81
2023/02/14 15:09:18;;;;;;;8.35;5.53;;;11.60;99.90;;;;;;5017732;28;20029;-82
2023/02/14 15:14:34;;;;;;;8.20;5.25;;;11.60;99.90;;;;;;5034551;28;20116;-83
2023/02/14 15:17:04;;;;;;;7.15;5.60;;;11.50;99.90;;;;;;5000730;28;20104;-81
2023/02/14 15:19:44;;;;;;;8.18;5.55;;;11.40;99.90;;;;;;4999805;28;20041;-82
2023/02/14 15:22:25;;;;;;;7.03;5.13;;;11.30;99.90;;;;;;5016493;28;20095;-82
2023/02/14 15:24:51;;;;;;;8.73;5.47;;;11.30;99.90;;;;;;5017253;28;20067;-79
2023/02/14 15:27:21;;;;;;;9.02;6.95;;;11.30;99.90;;;;;;5016372;28;20071;-81
2023/02/14 15:29:58;;;;;;;7.95;5.00;;;11.10;99.90;;;;;;5000703;28;20039;-81
2023/02/14 15:32:28;;;;;;;11.35;8.68;;;11.10;99.90;;;;;;4999320;28;20029;-82
2023/02/14 15:34:54;;;;;;;;;;;11.00;99.90;;;;;;5000757;28;20109;-80
2023/02/14 15:37:21;;;;;;;8.15;6.22;;;10.90;99.90;;;;;;4998171;28;20119;-80
2023/02/14 15:39:51;;;;;;;7.53;5.50;;;10.90;99.90;;;;;;5016024;28;20151;-84
2023/02/14 15:42:31;;;;;;;7.70;4.88;;;10.90;99.90;;;;;;5005016;28;20054;-83
2023/02/14 15:45:15;;;;;;;;;;;10.80;99.90;;;;;;4999135;28;20532;-83
2023/02/14 15:47:44;;;;;;;6.43;4.15;;;10.70;99.90;;;;;;4998843;28;20152;-82
2023/02/14 15:50:20;;;;;;;6.70;4.75;;;10.60;99.90;;;;;;5017623;28;21194;-82
2023/02/14 15:52:47;;;;;;;7.40;5.07;;;10.60;99.90;;;;;;5018158;28;20639;-80
2023/02/14 15:55:19;;;;;;;9.07;5.53;;;10.50;99.90;;;;;;5016425;28;20595;-84
2023/02/14 15:57:52;;;;;;;6.78;4.90;;;10.50;99.90;;;;;;5034421;28;20092;-85
2023/02/14 16:00:20;;;;;;;8.63;5.63;;;10.40;99.90;;;;;;5016740;28;20044;-81
2023/02/14 16:02:53;;;;;;;8.77;5.53;;;10.40;99.90;;;;;;5016905;28;20504;-81
2023/02/14 16:05:24;;;;;;;6.82;4.80;;;10.30;99.90;;;;;;5017906;28;20045;-81
2023/02/14 16:08:30;;;;;;;9.00;5.88;;;10.30;99.90;;;;;;4998527;28;21225;-83